sensor_id;sensor_type;location;lat;lon;timestamp;P1;durP1;ratioP1;P2;durP2;ratioP2
11222;SDS011;5668;52.012;8.724;2022-10-31T00:00:42;13.13;;;7.82;;
11222;SDS011;5668;52.012;8.724;2022-10-31T00:03:11;13.43;;;7.90;;
11222;SDS011;5668;52.012;8.724;2022-10-31T00:05:43;9.77;;;7.38;;
11222;SDS011;5668;52.012;8.724;2022-10-31T00:08:14;12.05;;;7.80;;
11222;SDS011;5668;52.012;8.724;2022-10-31T00:10:44;14.65;;;8.23;;
11222;SDS011;5668;52.012;8.724;2022-10-31T00:13:13;10.80;;;7.57;;
11222;SDS011;5668;52.012;8.724;2022-10-31T00:15:43;11.02;;;7.32;;
11222;SDS011;5668;52.012;8.724;2022-10-31T00:18:12;10.93;;;7.90;;
11222;SDS011;5668;52.012;8.724;2022-10-31T00:20:43;14.63;;;8.75;;
11222;SDS011;5668;52.012;8.724;2022-10-31T00:23:13;12.18;;;8.38;;
11222;SDS011;5668;52.012;8.724;2022-10-31T00:25:42;10.57;;;7.45;;
11222;SDS011;5668;52.012;8.724;2022-10-31T00:28:11;15.50;;;9.05;;
11222;SDS011;5668;52.012;8.724;2022-10-31T00:30:41;14.60;;;9.48;;
11222;SDS011;5668;52.012;8.724;2022-10-31T00:33:10;13.05;;;9.88;;
11222;SDS011;5668;52.012;8.724;2022-10-31T00:35:39;12.00;;;9.55;;
11222;SDS011;5668;52.012;8.724;2022-10-31T00:38:09;12.57;;;9.10;;
11222;SDS011;5668;52.012;8.724;2022-10-31T00:40:39;14.47;;;10.70;;
11222;SDS011;5668;52.012;8.724;2022-10-31T00:43:07;12.82;;;10.13;;
11222;SDS011;5668;52.012;8.724;2022-10-31T00:45:34;16.35;;;9.57;;
11222;SDS011;5668;52.012;8.724;2022-10-31T00:48:05;14.80;;;10.02;;
11222;SDS011;5668;52.012;8.724;2022-10-31T00:50:32;16.83;;;10.95;;
11222;SDS011;5668;52.012;8.724;2022-10-31T00:52:59;12.75;;;9.75;;
11222;SDS011;5668;52.012;8.724;2022-10-31T00:55:30;14.10;;;9.63;;
11222;SDS011;5668;52.012;8.724;2022-10-31T00:57:57;16.63;;;9.85;;
11222;SDS011;5668;52.012;8.724;2022-10-31T01:00:24;13.07;;;10.30;;
11222;SDS011;5668;52.012;8.724;2022-10-31T01:02:52;16.52;;;10.98;;
11222;SDS011;5668;52.012;8.724;2022-10-31T01:05:19;15.68;;;11.00;;
11222;SDS011;5668;52.012;8.724;2022-10-31T01:07:47;18.33;;;11.57;;
11222;SDS011;5668;52.012;8.724;2022-10-31T01:10:15;16.20;;;11.15;;
11222;SDS011;5668;52.012;8.724;2022-10-31T01:12:45;15.90;;;11.27;;
11222;SDS011;5668;52.012;8.724;2022-10-31T01:15:14;16.48;;;10.90;;
11222;SDS011;5668;52.012;8.724;2022-10-31T01:17:44;16.08;;;10.88;;
11222;SDS011;5668;52.012;8.724;2022-10-31T01:20:12;15.98;;;11.65;;
11222;SDS011;5668;52.012;8.724;2022-10-31T01:22:42;15.30;;;10.32;;
11222;SDS011;5668;52.012;8.724;2022-10-31T01:25:10;12.30;;;10.65;;
11222;SDS011;5668;52.012;8.724;2022-10-31T01:27:40;16.67;;;10.65;;
11222;SDS011;5668;52.012;8.724;2022-10-31T01:30:13;12.45;;;9.90;;
11222;SDS011;5668;52.012;8.724;2022-10-31T01:32:40;14.63;;;10.02;;
11222;SDS011;5668;52.012;8.724;2022-10-31T01:35:07;15.50;;;10.07;;
11222;SDS011;5668;52.012;8.724;2022-10-31T01:37:38;14.10;;;9.18;;
11222;SDS011;5668;52.012;8.724;2022-10-31T01:40:08;14.93;;;9.45;;
11222;SDS011;5668;52.012;8.724;2022-10-31T01:42:40;14.60;;;9.30;;
11222;SDS011;5668;52.012;8.724;2022-10-31T01:45:09;12.57;;;9.77;;
11222;SDS011;5668;52.012;8.724;2022-10-31T01:47:39;12.23;;;8.90;;
11222;SDS011;5668;52.012;8.724;2022-10-31T01:50:24;13.95;;;8.63;;
11222;SDS011;5668;52.012;8.724;2022-10-31T01:52:57;13.02;;;8.63;;
11222;SDS011;5668;52.012;8.724;2022-10-31T01:55:26;11.38;;;9.20;;
11222;SDS011;5668;52.012;8.724;2022-10-31T01:57:58;13.13;;;9.23;;
11222;SDS011;5668;52.012;8.724;2022-10-31T02:00:30;13.97;;;9.57;;
11222;SDS011;5668;52.012;8.724;2022-10-31T02:03:02;12.00;;;8.80;;
11222;SDS011;5668;52.012;8.724;2022-10-31T02:05:29;11.32;;;8.77;;
11222;SDS011;5668;52.012;8.724;2022-10-31T02:07:59;11.57;;;7.90;;
11222;SDS011;5668;52.012;8.724;2022-10-31T02:10:33;12.63;;;8.48;;
11222;SDS011;5668;52.012;8.724;2022-10-31T02:13:03;15.63;;;8.07;;
11222;SDS011;5668;52.012;8.724;2022-10-31T02:15:32;11.07;;;7.55;;
11222;SDS011;5668;52.012;8.724;2022-10-31T02:18:02;11.73;;;7.75;;
11222;SDS011;5668;52.012;8.724;2022-10-31T02:20:32;10.10;;;6.93;;
11222;SDS011;5668;52.012;8.724;2022-10-31T02:23:30;9.98;;;6.55;;
11222;SDS011;5668;52.012;8.724;2022-10-31T02:26:24;7.90;;;6.38;;
11222;SDS011;5668;52.012;8.724;2022-10-31T02:29:29;11.43;;;6.70;;
11222;SDS011;5668;52.012;8.724;2022-10-31T02:35:35;8.83;;;7.07;;
11222;SDS011;5668;52.012;8.724;2022-10-31T02:38:20;12.75;;;8.32;;
11222;SDS011;5668;52.012;8.724;2022-10-31T02:41:01;12.80;;;8.50;;
11222;SDS011;5668;52.012;8.724;2022-10-31T02:43:39;10.43;;;8.65;;
11222;SDS011;5668;52.012;8.724;2022-10-31T02:46:13;14.47;;;9.03;;
11222;SDS011;5668;52.012;8.724;2022-10-31T02:48:49;11.52;;;8.73;;
11222;SDS011;5668;52.012;8.724;2022-10-31T02:51:21;11.60;;;8.57;;
11222;SDS011;5668;52.012;8.724;2022-10-31T02:53:48;13.43;;;8.63;;
11222;SDS011;5668;52.012;8.724;2022-10-31T02:56:16;10.95;;;8.65;;
11222;SDS011;5668;52.012;8.724;2022-10-31T02:58:47;12.80;;;9.03;;
11222;SDS011;5668;52.012;8.724;2022-10-31T03:01:25;13.30;;;8.93;;
11222;SDS011;5668;52.012;8.724;2022-10-31T03:04:19;11.65;;;7.70;;
11222;SDS011;5668;52.012;8.724;2022-10-31T03:06:57;11.00;;;8.13;;
11222;SDS011;5668;52.012;8.724;2022-10-31T03:09:32;9.97;;;7.90;;
11222;SDS011;5668;52.012;8.724;2022-10-31T03:12:07;9.87;;;7.73;;
11222;SDS011;5668;52.012;8.724;2022-10-31T03:14:41;10.20;;;7.07;;
11222;SDS011;5668;52.012;8.724;2022-10-31T03:17:12;10.70;;;7.83;;
11222;SDS011;5668;52.012;8.724;2022-10-31T03:19:48;11.63;;;7.50;;
11222;SDS011;5668;52.012;8.724;2022-10-31T03:22:19;7.97;;;6.97;;
11222;SDS011;5668;52.012;8.724;2022-10-31T03:24:49;10.93;;;7.50;;
11222;SDS011;5668;52.012;8.724;2022-10-31T03:27:21;10.30;;;7.70;;
11222;SDS011;5668;52.012;8.724;2022-10-31T03:29:50;12.23;;;8.10;;
11222;SDS011;5668;52.012;8.724;2022-10-31T03:32:21;12.00;;;8.30;;
11222;SDS011;5668;52.012;8.724;2022-10-31T03:34:53;10.40;;;7.93;;
11222;SDS011;5668;52.012;8.724;2022-10-31T03:37:25;8.57;;;7.68;;
11222;SDS011;5668;52.012;8.724;2022-10-31T03:39:56;9.57;;;7.53;;
11222;SDS011;5668;52.012;8.724;2022-10-31T03:42:27;10.63;;;7.70;;
11222;SDS011;5668;52.012;8.724;2022-10-31T03:44:57;11.40;;;7.93;;
11222;SDS011;5668;52.012;8.724;2022-10-31T03:47:32;11.70;;;7.73;;
11222;SDS011;5668;52.012;8.724;2022-10-31T03:50:06;10.40;;;7.07;;
11222;SDS011;5668;52.012;8.724;2022-10-31T03:52:36;10.47;;;7.43;;
11222;SDS011;5668;52.012;8.724;2022-10-31T03:55:09;10.17;;;7.43;;
11222;SDS011;5668;52.012;8.724;2022-10-31T03:57:43;8.77;;;7.47;;
11222;SDS011;5668;52.012;8.724;2022-10-31T04:00:17;8.87;;;7.10;;
11222;SDS011;5668;52.012;8.724;2022-10-31T04:02:46;10.70;;;7.43;;
11222;SDS011;5668;52.012;8.724;2022-10-31T04:05:21;10.60;;;6.90;;
11222;SDS011;5668;52.012;8.724;2022-10-31T04:07:49;11.13;;;7.50;;
11222;SDS011;5668;52.012;8.724;2022-10-31T04:10:20;13.20;;;7.10;;
11222;SDS011;5668;52.012;8.724;2022-10-31T04:12:53;9.93;;;7.13;;
11222;SDS011;5668;52.012;8.724;2022-10-31T04:15:24;8.10;;;6.87;;
11222;SDS011;5668;52.012;8.724;2022-10-31T04:17:53;8.32;;;6.93;;
11222;SDS011;5668;52.012;8.724;2022-10-31T04:20:32;9.27;;;6.10;;
11222;SDS011;5668;52.012;8.724;2022-10-31T04:23:00;8.57;;;6.77;;
11222;SDS011;5668;52.012;8.724;2022-10-31T04:25:27;9.53;;;6.83;;
11222;SDS011;5668;52.012;8.724;2022-10-31T04:27:55;8.55;;;7.05;;
11222;SDS011;5668;52.012;8.724;2022-10-31T04:30:22;10.43;;;7.70;;
11222;SDS011;5668;52.012;8.724;2022-10-31T04:32:49;8.43;;;6.40;;
11222;SDS011;5668;52.012;8.724;2022-10-31T04:35:16;8.93;;;6.83;;
11222;SDS011;5668;52.012;8.724;2022-10-31T04:37:45;9.67;;;6.93;;
11222;SDS011;5668;52.012;8.724;2022-10-31T04:40:12;13.57;;;7.60;;
11222;SDS011;5668;52.012;8.724;2022-10-31T04:42:40;8.83;;;7.10;;
11222;SDS011;5668;52.012;8.724;2022-10-31T04:45:08;10.13;;;7.00;;
11222;SDS011;5668;52.012;8.724;2022-10-31T04:47:35;9.87;;;6.57;;
11222;SDS011;5668;52.012;8.724;2022-10-31T04:50:02;9.97;;;6.67;;
11222;SDS011;5668;52.012;8.724;2022-10-31T04:52:31;8.40;;;6.73;;
11222;SDS011;5668;52.012;8.724;2022-10-31T04:55:05;10.60;;;7.53;;
11222;SDS011;5668;52.012;8.724;2022-10-31T04:57:39;11.37;;;7.60;;
11222;SDS011;5668;52.012;8.724;2022-10-31T05:00:08;9.60;;;7.57;;
11222;SDS011;5668;52.012;8.724;2022-10-31T05:02:42;12.70;;;8.80;;
11222;SDS011;5668;52.012;8.724;2022-10-31T05:05:09;11.37;;;7.43;;
11222;SDS011;5668;52.012;8.724;2022-10-31T05:07:38;12.37;;;8.40;;
11222;SDS011;5668;52.012;8.724;2022-10-31T05:10:08;13.13;;;8.43;;
11222;SDS011;5668;52.012;8.724;2022-10-31T05:12:37;11.77;;;8.73;;
11222;SDS011;5668;52.012;8.724;2022-10-31T05:15:11;11.90;;;8.43;;
11222;SDS011;5668;52.012;8.724;2022-10-31T05:17:38;16.13;;;8.97;;
11222;SDS011;5668;52.012;8.724;2022-10-31T05:20:07;12.07;;;9.27;;
11222;SDS011;5668;52.012;8.724;2022-10-31T05:22:36;11.77;;;9.17;;
11222;SDS011;5668;52.012;8.724;2022-10-31T05:25:09;11.70;;;9.07;;
11222;SDS011;5668;52.012;8.724;2022-10-31T05:27:38;12.23;;;8.93;;
11222;SDS011;5668;52.012;8.724;2022-10-31T05:30:06;12.97;;;9.13;;
11222;SDS011;5668;52.012;8.724;2022-10-31T05:32:36;11.87;;;9.33;;
11222;SDS011;5668;52.012;8.724;2022-10-31T05:35:04;10.57;;;8.93;;
11222;SDS011;5668;52.012;8.724;2022-10-31T05:37:33;15.27;;;9.27;;
11222;SDS011;5668;52.012;8.724;2022-10-31T05:40:00;17.50;;;9.00;;
11222;SDS011;5668;52.012;8.724;2022-10-31T05:42:29;12.57;;;8.80;;
11222;SDS011;5668;52.012;8.724;2022-10-31T05:44:56;10.57;;;8.30;;
11222;SDS011;5668;52.012;8.724;2022-10-31T05:47:23;8.93;;;7.80;;
11222;SDS011;5668;52.012;8.724;2022-10-31T05:49:50;9.43;;;8.40;;
11222;SDS011;5668;52.012;8.724;2022-10-31T05:52:17;8.80;;;7.90;;
11222;SDS011;5668;52.012;8.724;2022-10-31T05:54:45;8.03;;;7.13;;
11222;SDS011;5668;52.012;8.724;2022-10-31T05:57:12;7.60;;;6.80;;
11222;SDS011;5668;52.012;8.724;2022-10-31T05:59:41;7.97;;;7.00;;
11222;SDS011;5668;52.012;8.724;2022-10-31T06:02:08;10.67;;;9.03;;
11222;SDS011;5668;52.012;8.724;2022-10-31T06:04:35;12.70;;;9.40;;
11222;SDS011;5668;52.012;8.724;2022-10-31T06:07:02;11.00;;;8.87;;
11222;SDS011;5668;52.012;8.724;2022-10-31T06:09:30;14.27;;;9.07;;
11222;SDS011;5668;52.012;8.724;2022-10-31T06:11:57;10.03;;;9.03;;
11222;SDS011;5668;52.012;8.724;2022-10-31T06:14:24;12.13;;;8.93;;
11222;SDS011;5668;52.012;8.724;2022-10-31T06:16:52;11.87;;;9.90;;
11222;SDS011;5668;52.012;8.724;2022-10-31T06:19:20;13.67;;;9.83;;
11222;SDS011;5668;52.012;8.724;2022-10-31T06:21:48;12.60;;;10.33;;
11222;SDS011;5668;52.012;8.724;2022-10-31T06:24:15;13.13;;;9.90;;
11222;SDS011;5668;52.012;8.724;2022-10-31T06:26:42;13.73;;;9.57;;
11222;SDS011;5668;52.012;8.724;2022-10-31T06:29:09;14.87;;;9.73;;
11222;SDS011;5668;52.012;8.724;2022-10-31T06:31:36;11.07;;;9.17;;
11222;SDS011;5668;52.012;8.724;2022-10-31T06:34:10;12.23;;;8.57;;
11222;SDS011;5668;52.012;8.724;2022-10-31T06:36:38;12.43;;;10.20;;
11222;SDS011;5668;52.012;8.724;2022-10-31T06:39:05;11.67;;;9.83;;
11222;SDS011;5668;52.012;8.724;2022-10-31T06:41:32;13.13;;;8.97;;
11222;SDS011;5668;52.012;8.724;2022-10-31T06:44:01;10.13;;;8.90;;
11222;SDS011;5668;52.012;8.724;2022-10-31T06:46:28;9.73;;;8.07;;
11222;SDS011;5668;52.012;8.724;2022-10-31T06:48:56;10.07;;;7.73;;
11222;SDS011;5668;52.012;8.724;2022-10-31T06:51:24;11.53;;;8.27;;
11222;SDS011;5668;52.012;8.724;2022-10-31T06:53:51;7.57;;;6.70;;
11222;SDS011;5668;52.012;8.724;2022-10-31T06:56:18;7.90;;;7.03;;
11222;SDS011;5668;52.012;8.724;2022-10-31T06:58:46;8.10;;;6.10;;
11222;SDS011;5668;52.012;8.724;2022-10-31T07:01:13;8.20;;;6.60;;
11222;SDS011;5668;52.012;8.724;2022-10-31T07:03:40;7.97;;;6.77;;
11222;SDS011;5668;52.012;8.724;2022-10-31T07:06:07;8.77;;;6.53;;
11222;SDS011;5668;52.012;8.724;2022-10-31T07:08:36;9.43;;;6.97;;
11222;SDS011;5668;52.012;8.724;2022-10-31T07:11:03;7.63;;;6.90;;
11222;SDS011;5668;52.012;8.724;2022-10-31T07:13:30;9.43;;;6.87;;
11222;SDS011;5668;52.012;8.724;2022-10-31T07:15:59;8.47;;;7.40;;
11222;SDS011;5668;52.012;8.724;2022-10-31T07:18:28;10.60;;;7.67;;
11222;SDS011;5668;52.012;8.724;2022-10-31T07:20:55;9.67;;;7.60;;
11222;SDS011;5668;52.012;8.724;2022-10-31T07:23:23;9.73;;;7.83;;
11222;SDS011;5668;52.012;8.724;2022-10-31T07:25:55;10.47;;;7.83;;
11222;SDS011;5668;52.012;8.724;2022-10-31T07:28:23;7.97;;;7.00;;
11222;SDS011;5668;52.012;8.724;2022-10-31T07:30:51;9.20;;;6.97;;
11222;SDS011;5668;52.012;8.724;2022-10-31T07:33:19;9.47;;;8.07;;
11222;SDS011;5668;52.012;8.724;2022-10-31T07:35:47;10.57;;;8.23;;
11222;SDS011;5668;52.012;8.724;2022-10-31T07:38:14;12.53;;;9.40;;
11222;SDS011;5668;52.012;8.724;2022-10-31T07:40:42;12.93;;;9.60;;
11222;SDS011;5668;52.012;8.724;2022-10-31T07:43:11;11.90;;;9.53;;
11222;SDS011;5668;52.012;8.724;2022-10-31T07:45:38;13.57;;;10.13;;
11222;SDS011;5668;52.012;8.724;2022-10-31T07:48:06;14.82;;;11.73;;
11222;SDS011;5668;52.012;8.724;2022-10-31T07:50:33;14.43;;;10.93;;
11222;SDS011;5668;52.012;8.724;2022-10-31T07:53:00;13.30;;;10.77;;
11222;SDS011;5668;52.012;8.724;2022-10-31T07:55:28;14.07;;;10.60;;
11222;SDS011;5668;52.012;8.724;2022-10-31T07:57:57;13.27;;;10.53;;
11222;SDS011;5668;52.012;8.724;2022-10-31T08:00:26;15.47;;;10.70;;
11222;SDS011;5668;52.012;8.724;2022-10-31T08:02:57;14.20;;;10.33;;
11222;SDS011;5668;52.012;8.724;2022-10-31T08:05:25;14.00;;;10.43;;
11222;SDS011;5668;52.012;8.724;2022-10-31T08:07:52;15.57;;;12.07;;
11222;SDS011;5668;52.012;8.724;2022-10-31T08:10:20;19.47;;;11.47;;
11222;SDS011;5668;52.012;8.724;2022-10-31T08:12:54;15.63;;;12.00;;
11222;SDS011;5668;52.012;8.724;2022-10-31T08:15:23;16.40;;;11.77;;
11222;SDS011;5668;52.012;8.724;2022-10-31T08:17:52;15.80;;;11.97;;
11222;SDS011;5668;52.012;8.724;2022-10-31T08:20:20;16.13;;;12.80;;
11222;SDS011;5668;52.012;8.724;2022-10-31T08:22:55;20.50;;;13.23;;
11222;SDS011;5668;52.012;8.724;2022-10-31T08:25:23;16.70;;;12.53;;
11222;SDS011;5668;52.012;8.724;2022-10-31T08:27:51;19.17;;;13.27;;
11222;SDS011;5668;52.012;8.724;2022-10-31T08:30:20;21.93;;;13.60;;
11222;SDS011;5668;52.012;8.724;2022-10-31T08:32:57;16.60;;;13.10;;
11222;SDS011;5668;52.012;8.724;2022-10-31T08:35:29;17.57;;;13.40;;
11222;SDS011;5668;52.012;8.724;2022-10-31T08:37:56;17.90;;;14.40;;
11222;SDS011;5668;52.012;8.724;2022-10-31T08:40:24;17.00;;;13.63;;
11222;SDS011;5668;52.012;8.724;2022-10-31T08:42:56;25.40;;;15.10;;
11222;SDS011;5668;52.012;8.724;2022-10-31T08:45:23;18.60;;;14.13;;
11222;SDS011;5668;52.012;8.724;2022-10-31T08:47:51;20.53;;;15.63;;
11222;SDS011;5668;52.012;8.724;2022-10-31T08:50:24;21.23;;;16.13;;
11222;SDS011;5668;52.012;8.724;2022-10-31T08:52:52;21.27;;;15.67;;
11222;SDS011;5668;52.012;8.724;2022-10-31T08:55:19;21.30;;;16.23;;
11222;SDS011;5668;52.012;8.724;2022-10-31T08:57:47;20.70;;;16.53;;
11222;SDS011;5668;52.012;8.724;2022-10-31T09:00:17;19.60;;;15.67;;
11222;SDS011;5668;52.012;8.724;2022-10-31T09:02:44;20.80;;;15.47;;
11222;SDS011;5668;52.012;8.724;2022-10-31T09:05:11;23.43;;;16.57;;
11222;SDS011;5668;52.012;8.724;2022-10-31T09:07:40;21.97;;;16.40;;
11222;SDS011;5668;52.012;8.724;2022-10-31T09:10:07;20.87;;;15.67;;
11222;SDS011;5668;52.012;8.724;2022-10-31T09:12:37;20.43;;;16.43;;
11222;SDS011;5668;52.012;8.724;2022-10-31T09:15:04;23.27;;;16.30;;
11222;SDS011;5668;52.012;8.724;2022-10-31T09:17:32;22.87;;;16.03;;
11222;SDS011;5668;52.012;8.724;2022-10-31T09:19:59;23.07;;;16.63;;
11222;SDS011;5668;52.012;8.724;2022-10-31T09:22:26;20.93;;;15.57;;
11222;SDS011;5668;52.012;8.724;2022-10-31T09:27:36;23.03;;;16.17;;
11222;SDS011;5668;52.012;8.724;2022-10-31T09:30:03;19.03;;;15.13;;
11222;SDS011;5668;52.012;8.724;2022-10-31T09:32:31;24.03;;;16.97;;
11222;SDS011;5668;52.012;8.724;2022-10-31T09:34:59;22.90;;;16.03;;
11222;SDS011;5668;52.012;8.724;2022-10-31T09:37:26;20.93;;;15.63;;
11222;SDS011;5668;52.012;8.724;2022-10-31T09:39:53;23.48;;;17.77;;
11222;SDS011;5668;52.012;8.724;2022-10-31T09:42:26;21.40;;;16.73;;
11222;SDS011;5668;52.012;8.724;2022-10-31T09:45:06;21.93;;;17.00;;
11222;SDS011;5668;52.012;8.724;2022-10-31T09:47:39;22.27;;;17.08;;
11222;SDS011;5668;52.012;8.724;2022-10-31T09:50:18;21.87;;;16.63;;
11222;SDS011;5668;52.012;8.724;2022-10-31T09:52:51;23.65;;;17.50;;
11222;SDS011;5668;52.012;8.724;2022-10-31T09:55:24;21.55;;;16.65;;
11222;SDS011;5668;52.012;8.724;2022-10-31T09:58:03;23.20;;;16.53;;
11222;SDS011;5668;52.012;8.724;2022-10-31T10:00:31;25.88;;;17.67;;
11222;SDS011;5668;52.012;8.724;2022-10-31T10:03:00;24.17;;;18.47;;
11222;SDS011;5668;52.012;8.724;2022-10-31T10:05:36;25.20;;;17.88;;
11222;SDS011;5668;52.012;8.724;2022-10-31T10:08:08;28.92;;;19.50;;
11222;SDS011;5668;52.012;8.724;2022-10-31T10:10:42;25.13;;;18.67;;
11222;SDS011;5668;52.012;8.724;2022-10-31T10:13:20;23.90;;;18.97;;
11222;SDS011;5668;52.012;8.724;2022-10-31T10:16:03;23.17;;;17.88;;
11222;SDS011;5668;52.012;8.724;2022-10-31T10:18:55;25.17;;;18.15;;
11222;SDS011;5668;52.012;8.724;2022-10-31T10:21:35;23.13;;;18.30;;
11222;SDS011;5668;52.012;8.724;2022-10-31T10:24:24;24.17;;;18.20;;
11222;SDS011;5668;52.012;8.724;2022-10-31T10:26:59;23.40;;;18.23;;
11222;SDS011;5668;52.012;8.724;2022-10-31T10:29:39;26.80;;;19.20;;
11222;SDS011;5668;52.012;8.724;2022-10-31T10:32:11;24.13;;;18.45;;
11222;SDS011;5668;52.012;8.724;2022-10-31T10:34:45;22.70;;;17.15;;
11222;SDS011;5668;52.012;8.724;2022-10-31T10:37:20;24.15;;;17.75;;
11222;SDS011;5668;52.012;8.724;2022-10-31T10:39:53;25.02;;;17.10;;
11222;SDS011;5668;52.012;8.724;2022-10-31T10:42:26;25.48;;;18.38;;
11222;SDS011;5668;52.012;8.724;2022-10-31T10:45:17;23.60;;;16.98;;
11222;SDS011;5668;52.012;8.724;2022-10-31T10:48:05;23.67;;;16.42;;
11222;SDS011;5668;52.012;8.724;2022-10-31T10:50:39;23.70;;;16.67;;
11222;SDS011;5668;52.012;8.724;2022-10-31T10:53:16;20.88;;;16.00;;
11222;SDS011;5668;52.012;8.724;2022-10-31T10:56:02;22.23;;;16.92;;
11222;SDS011;5668;52.012;8.724;2022-10-31T10:58:37;25.33;;;16.27;;
11222;SDS011;5668;52.012;8.724;2022-10-31T11:01:10;23.13;;;16.45;;
11222;SDS011;5668;52.012;8.724;2022-10-31T11:03:38;24.10;;;16.75;;
11222;SDS011;5668;52.012;8.724;2022-10-31T11:06:15;20.98;;;15.70;;
11222;SDS011;5668;52.012;8.724;2022-10-31T11:08:47;20.25;;;15.35;;
11222;SDS011;5668;52.012;8.724;2022-10-31T11:11:19;18.85;;;14.27;;
11222;SDS011;5668;52.012;8.724;2022-10-31T11:13:52;20.35;;;14.05;;
11222;SDS011;5668;52.012;8.724;2022-10-31T11:16:29;19.42;;;13.57;;
11222;SDS011;5668;52.012;8.724;2022-10-31T11:19:06;17.48;;;13.27;;
11222;SDS011;5668;52.012;8.724;2022-10-31T11:21:39;16.33;;;11.98;;
11222;SDS011;5668;52.012;8.724;2022-10-31T11:24:12;17.13;;;12.57;;
11222;SDS011;5668;52.012;8.724;2022-10-31T11:26:42;14.35;;;11.55;;
11222;SDS011;5668;52.012;8.724;2022-10-31T11:29:12;14.70;;;11.80;;
11222;SDS011;5668;52.012;8.724;2022-10-31T11:31:43;17.58;;;11.75;;
11222;SDS011;5668;52.012;8.724;2022-10-31T11:34:15;15.55;;;11.40;;
11222;SDS011;5668;52.012;8.724;2022-10-31T11:36:49;15.02;;;11.07;;
11222;SDS011;5668;52.012;8.724;2022-10-31T11:39:17;16.08;;;11.55;;
11222;SDS011;5668;52.012;8.724;2022-10-31T11:41:48;16.55;;;10.73;;
11222;SDS011;5668;52.012;8.724;2022-10-31T11:44:17;13.52;;;10.68;;
11222;SDS011;5668;52.012;8.724;2022-10-31T11:46:48;11.57;;;10.30;;
11222;SDS011;5668;52.012;8.724;2022-10-31T11:49:17;12.30;;;9.68;;
11222;SDS011;5668;52.012;8.724;2022-10-31T11:51:47;15.25;;;11.27;;
11222;SDS011;5668;52.012;8.724;2022-10-31T11:54:20;15.50;;;10.38;;
11222;SDS011;5668;52.012;8.724;2022-10-31T11:56:49;12.80;;;10.27;;
11222;SDS011;5668;52.012;8.724;2022-10-31T11:59:18;12.70;;;9.80;;
11222;SDS011;5668;52.012;8.724;2022-10-31T12:01:53;14.43;;;10.18;;
11222;SDS011;5668;52.012;8.724;2022-10-31T12:04:24;14.30;;;10.18;;
11222;SDS011;5668;52.012;8.724;2022-10-31T12:06:57;11.52;;;9.65;;
11222;SDS011;5668;52.012;8.724;2022-10-31T12:09:25;17.58;;;10.88;;
11222;SDS011;5668;52.012;8.724;2022-10-31T12:14:51;15.13;;;10.68;;
11222;SDS011;5668;52.012;8.724;2022-10-31T12:17:29;23.25;;;14.60;;
11222;SDS011;5668;52.012;8.724;2022-10-31T12:20:06;15.82;;;12.55;;
11222;SDS011;5668;52.012;8.724;2022-10-31T12:22:51;13.52;;;10.38;;
11222;SDS011;5668;52.012;8.724;2022-10-31T12:25:28;14.38;;;10.80;;
11222;SDS011;5668;52.012;8.724;2022-10-31T12:28:12;31.60;;;20.58;;
11222;SDS011;5668;52.012;8.724;2022-10-31T12:31:01;27.15;;;17.67;;
11222;SDS011;5668;52.012;8.724;2022-10-31T12:33:43;16.65;;;13.27;;
11222;SDS011;5668;52.012;8.724;2022-10-31T12:36:21;13.52;;;10.30;;
11222;SDS011;5668;52.012;8.724;2022-10-31T12:41:51;33.03;;;23.88;;
11222;SDS011;5668;52.012;8.724;2022-10-31T12:44:46;28.15;;;19.58;;
11222;SDS011;5668;52.012;8.724;2022-10-31T12:47:30;16.63;;;12.70;;
11222;SDS011;5668;52.012;8.724;2022-10-31T12:50:22;14.68;;;12.05;;
11222;SDS011;5668;52.012;8.724;2022-10-31T12:53:01;10.30;;;8.98;;
11222;SDS011;5668;52.012;8.724;2022-10-31T12:55:41;11.35;;;9.10;;
11222;SDS011;5668;52.012;8.724;2022-10-31T12:58:19;12.43;;;8.75;;
11222;SDS011;5668;52.012;8.724;2022-10-31T13:00:55;12.65;;;10.68;;
11222;SDS011;5668;52.012;8.724;2022-10-31T13:03:32;16.27;;;12.48;;
11222;SDS011;5668;52.012;8.724;2022-10-31T13:06:12;15.10;;;11.38;;
11222;SDS011;5668;52.012;8.724;2022-10-31T13:08:44;28.25;;;18.33;;
11222;SDS011;5668;52.012;8.724;2022-10-31T13:11:16;31.90;;;22.83;;
11222;SDS011;5668;52.012;8.724;2022-10-31T13:13:50;47.15;;;36.58;;
11222;SDS011;5668;52.012;8.724;2022-10-31T13:16:24;46.90;;;34.25;;
11222;SDS011;5668;52.012;8.724;2022-10-31T13:18:56;37.83;;;28.10;;
11222;SDS011;5668;52.012;8.724;2022-10-31T13:21:30;40.60;;;28.42;;
11222;SDS011;5668;52.012;8.724;2022-10-31T13:24:02;37.80;;;22.83;;
11222;SDS011;5668;52.012;8.724;2022-10-31T13:26:36;22.52;;;15.50;;
11222;SDS011;5668;52.012;8.724;2022-10-31T13:29:09;20.63;;;14.77;;
11222;SDS011;5668;52.012;8.724;2022-10-31T13:31:44;21.55;;;13.38;;
11222;SDS011;5668;52.012;8.724;2022-10-31T13:34:16;20.95;;;13.57;;
11222;SDS011;5668;52.012;8.724;2022-10-31T13:36:51;21.90;;;14.18;;
11222;SDS011;5668;52.012;8.724;2022-10-31T13:39:27;33.05;;;19.88;;
11222;SDS011;5668;52.012;8.724;2022-10-31T13:42:08;60.08;;;36.50;;
11222;SDS011;5668;52.012;8.724;2022-10-31T13:44:40;54.92;;;36.08;;
11222;SDS011;5668;52.012;8.724;2022-10-31T13:49:51;49.38;;;33.33;;
11222;SDS011;5668;52.012;8.724;2022-10-31T13:52:31;37.65;;;23.17;;
11222;SDS011;5668;52.012;8.724;2022-10-31T13:54:58;30.88;;;21.80;;
11222;SDS011;5668;52.012;8.724;2022-10-31T13:57:30;20.02;;;14.60;;
11222;SDS011;5668;52.012;8.724;2022-10-31T14:00:02;28.17;;;20.15;;
11222;SDS011;5668;52.012;8.724;2022-10-31T14:02:33;75.10;;;45.78;;
11222;SDS011;5668;52.012;8.724;2022-10-31T14:05:03;88.28;;;55.67;;
11222;SDS011;5668;52.012;8.724;2022-10-31T14:07:33;79.50;;;50.00;;
11222;SDS011;5668;52.012;8.724;2022-10-31T14:10:21;58.83;;;39.10;;
11222;SDS011;5668;52.012;8.724;2022-10-31T14:12:51;26.58;;;17.58;;
11222;SDS011;5668;52.012;8.724;2022-10-31T14:15:28;15.38;;;11.23;;
11222;SDS011;5668;52.012;8.724;2022-10-31T14:17:56;13.80;;;8.30;;
11222;SDS011;5668;52.012;8.724;2022-10-31T14:20:38;11.43;;;7.68;;
11222;SDS011;5668;52.012;8.724;2022-10-31T14:23:13;9.90;;;7.10;;
11222;SDS011;5668;52.012;8.724;2022-10-31T14:26:06;11.55;;;7.22;;
11222;SDS011;5668;52.012;8.724;2022-10-31T14:28:55;7.85;;;6.72;;
11222;SDS011;5668;52.012;8.724;2022-10-31T14:31:27;8.95;;;6.75;;
11222;SDS011;5668;52.012;8.724;2022-10-31T14:34:04;9.63;;;6.75;;
11222;SDS011;5668;52.012;8.724;2022-10-31T14:36:50;7.07;;;5.90;;
11222;SDS011;5668;52.012;8.724;2022-10-31T14:39:27;10.35;;;6.25;;
11222;SDS011;5668;52.012;8.724;2022-10-31T14:42:05;7.88;;;5.53;;
11222;SDS011;5668;52.012;8.724;2022-10-31T14:44:49;8.07;;;5.80;;
11222;SDS011;5668;52.012;8.724;2022-10-31T14:47:27;9.60;;;6.07;;
11222;SDS011;5668;52.012;8.724;2022-10-31T14:50:10;10.13;;;6.45;;
11222;SDS011;5668;52.012;8.724;2022-10-31T14:52:48;9.20;;;6.30;;
11222;SDS011;5668;52.012;8.724;2022-10-31T14:55:19;12.65;;;6.32;;
11222;SDS011;5668;52.012;8.724;2022-10-31T14:57:49;9.80;;;6.60;;
11222;SDS011;5668;52.012;8.724;2022-10-31T15:00:20;10.20;;;6.78;;
11222;SDS011;5668;52.012;8.724;2022-10-31T15:02:53;12.50;;;6.75;;
11222;SDS011;5668;52.012;8.724;2022-10-31T15:05:30;9.45;;;6.22;;
11222;SDS011;5668;52.012;8.724;2022-10-31T15:08:00;10.40;;;6.28;;
11222;SDS011;5668;52.012;8.724;2022-10-31T15:10:30;9.02;;;6.88;;
11222;SDS011;5668;52.012;8.724;2022-10-31T15:13:08;8.73;;;6.82;;
11222;SDS011;5668;52.012;8.724;2022-10-31T15:15:36;10.35;;;6.47;;
11222;SDS011;5668;52.012;8.724;2022-10-31T15:18:06;10.13;;;7.40;;
11222;SDS011;5668;52.012;8.724;2022-10-31T15:20:33;11.07;;;7.20;;
11222;SDS011;5668;52.012;8.724;2022-10-31T15:23:09;9.63;;;7.40;;
11222;SDS011;5668;52.012;8.724;2022-10-31T15:25:41;10.65;;;7.18;;